Huguenot, New York
Current Conditions -  °F | °C
As of 4:44 PM on Wednesday 26 Nov 2014 (Local Time) from KFWN Reporting Station
Light Snow Light Snow  
Wind Chill: 27°   Ceiling: 800
Heat Index: 33°   Visibility: 2mi
Dew Point: 32°   Wind: 7mph
Humidity: 96%   Direction: 30°NNE
Pressure: 29.86"   Gusts: NA
Location:  41.41°N, 74.61°W
Report Text: KFWN 262144Z AUTO 03006KT 2SM -SN BR BKN008 OVC012 01/00 A2986 RMK AO2 P0004 T00060000
Loading
Personal Weather Stations






























Interactive Weather Map New forecast layout! Learn more

10-Day Weather Forecast

Advertisements
Track Severe Weather on mobile